Time;durP1;ratioP1;P1;durP2;ratioP2;P2;SDS_P1;SDS_P2;PMS_P1;PMS_P2;Temp;Humidity;BMP_temperature;BMP_pressure;BME280_temperature;BME280_humidity;BME280_pressure;Samples;Min_cycle;Max_cycle;Signal;HPM_P1;HPM_P2
2024/02/25 00:03:02;;;;;;;35.00;19.60;;;;;;;2.32;85.50;99636.40;133771;1278;22527;-85
2024/02/25 00:06:49;;;;;;;;;;;;;;;;;;;;;
2024/02/25 00:20:00;;;;;;;;;;;;;;;;;;;;;
2024/02/25 00:24:54;;;;;;;27.10;15.00;;;;;;;2.21;84.55;99646.02;133793;1277;22714;-84
2024/02/25 00:28:43;;;;;;;;;;;;;;;;;;;;;
2024/02/25 00:33:38;;;;;;;26.80;15.40;;;;;;;2.02;84.93;99632.16;133614;1278;22531;-85
2024/02/25 00:37:59;;;;;;;21.30;12.90;;;;;;;1.95;85.12;99631.55;133625;1278;22588;-84
2024/02/25 00:42:21;;;;;;;20.00;12.00;;;;;;;1.79;85.03;99625.80;133716;1278;22559;-84
2024/02/25 00:46:12;;;;;;;;;;;;;;;;;;;;;
2024/02/25 00:55:05;;;;;;;;;;;;;;;;;;;;;
2024/02/25 00:59:55;;;;;;;31.30;16.50;;;;;;;1.76;85.81;99601.40;133910;1277;25445;-83
2024/02/25 01:04:05;;;;;;;;;;;;;;;;;;;;;
2024/02/25 01:08:05;;;;;;;;;;;;;;;;;;;;;
2024/02/25 01:12:48;;;;;;;;;;;;;;;;;;;;;
2024/02/25 01:30:31;;;;;;;42.00;18.50;;;;;;;1.31;88.86;99606.40;133917;1277;22638;-85
2024/02/25 01:34:53;;;;;;;41.80;20.10;;;;;;;1.36;89.54;99610.39;133877;1262;22529;-83
2024/02/25 01:55:50;;;;;;;;;;;;;;;;;;;;;
2024/02/25 02:00:23;;;;;;;;;;;;;;;1.63;89.87;99591.88;133908;1278;23816;-87
2024/02/25 02:04:09;;;;;;;;;;;;;;;;;;;;;
2024/02/25 02:26:28;;;;;;;;;;;;;;;;;;;;;
2024/02/25 02:30:31;;;;;;;;;;;;;;;;;;;;;
2024/02/25 02:39:09;;;;;;;;;;;;;;;1.22;89.20;99591.08;133800;1277;23207;-84
2024/02/25 02:43:05;;;;;;;;;;;;;;;;;;;;;
2024/02/25 03:00:28;;;;;;;;;;;;;;;;;;;;;
2024/02/25 03:04:55;;;;;;;;;;;;;;;;;;;;;
2024/02/25 03:08:58;;;;;;;;;;;;;;;;;;;;;
2024/02/25 03:13:06;;;;;;;;;;;;;;;;;;;;;
2024/02/25 03:17:23;;;;;;;;;;;;;;;;;;;;;
2024/02/25 03:21:45;;;;;;;;;;;;;;;;;;;;;
2024/02/25 03:26:44;;;;;;;43.90;24.00;;;;;;;1.05;91.79;99584.39;133689;1277;22578;-86
2024/02/25 03:31:04;;;;;;;40.80;22.80;;;;;;;1.09;91.72;99576.98;133850;1278;24270;-87
2024/02/25 03:35:05;;;;;;;;;;;;;;;1.09;91.86;99575.19;133842;1278;24262;-84
2024/02/25 03:43:28;;;;;;;;;;;;;;;1.12;92.28;99575.80;133839;1278;22584;-85
2024/02/25 03:51:41;;;;;;;;;;;;;;;;;;;;;
2024/02/25 04:00:13;;;;;;;;;;;;;;;;;;;;;
2024/02/25 04:13:24;;;;;;;;;;;;;;;;;;;;;
2024/02/25 04:21:44;;;;;;;;;;;;;;;;;;;;;
2024/02/25 04:30:28;;;;;;;;;;;;;;;;;;;;;
2024/02/25 04:47:37;;;;;;;;;;;;;;;;;;;;;
2024/02/25 05:01:02;;;;;;;;;;;;;;;;;;;;;
2024/02/25 05:05:14;;;;;;;;;;;;;;;;;;;;;
2024/02/25 05:18:30;;;;;;;;;;;;;;;;;;;;;
2024/02/25 05:22:47;;;;;;;;;;;;;;;;;;;;;
2024/02/25 05:36:04;;;;;;;;;;;;;;;;;;;;;
2024/02/25 05:41:02;;;;;;;32.50;22.10;;;;;;;1.41;94.36;99541.70;133686;1278;22752;-85
2024/02/25 05:48:58;;;;;;;39.50;23.40;;;;;;;1.41;94.67;99534.69;133802;1277;25309;-84
2024/02/25 05:53:22;;;;;;;;;;;;;;;;;;;;;
2024/02/25 05:57:17;;;;;;;;;;;;;;;;;;;;;
2024/02/25 06:01:06;;;;;;;37.40;22.80;;;;;;;1.34;95.20;99519.70;133851;1277;24254;-83
2024/02/25 06:22:54;;;;;;;;;;;;;;;;;;;;;
2024/02/25 06:32:00;;;;;;;;;;;;;;;;;;;;;
2024/02/25 06:35:53;;;;;;;;;;;;;;;;;;;;;
2024/02/25 07:02:44;;;;;;;40.10;25.30;;;;;;;6.43;91.47;99518.89;133672;1278;22622;-85
2024/02/25 07:11:35;;;;;;;42.10;26.60;;;;;;;7.24;89.40;99512.33;133749;1277;23366;-83
2024/02/25 07:19:51;;;;;;;;;;;;;;;;;;;;;
2024/02/25 07:24:46;;;;;;;;;;;;;;;;;;;;;
2024/02/25 07:33:38;;;;;;;;;;;;;;;;;;;;;
2024/02/25 07:42:34;;;;;;;37.70;25.50;;;;;;;9.85;83.27;99490.55;133301;1278;22592;-84
2024/02/25 08:00:02;;;;;;;44.60;26.90;;;;;;;10.01;79.75;99467.45;134025;1278;23068;-84
2024/02/25 08:03:58;;;;;;;;;;;;;;;;;;;;;
2024/02/25 08:12:45;;;;;;;;;;;;;;;;;;;;;
2024/02/25 08:17:12;;;;;;;;;;;;;;;;;;;;;
2024/02/25 08:56:30;;;;;;;;;;;;;;;;;;;;;
2024/02/25 09:09:45;;;;;;;28.20;17.20;;;;;;;11.15;70.39;99387.92;132953;1277;22692;-85
2024/02/25 09:13:57;;;;;;;24.90;16.10;;;;;;;11.30;70.03;99396.38;133696;1277;22535;-85
2024/02/25 09:17:33;;;;;;;;;;;;;;;;;;;;;
2024/02/25 09:26:33;;;;;;;;;;;;;;;;;;;;;
2024/02/25 09:30:46;;;;;;;;;;;;;;;;;;;;;
2024/02/25 09:35:07;;;;;;;27.60;15.50;;;;;;;10.96;67.48;99392.49;132761;1291;22638;-83
2024/02/25 09:52:19;;;;;;;18.30;10.30;;;;;;;12.20;67.12;99390.39;132552;1285;22578;-83
2024/02/25 10:01:05;;;;;;;;;;;;;;;;;;;;;
2024/02/25 10:18:17;;;;;;;;;;;;;;;;;;;;;
2024/02/25 10:49:18;;;;;;;;;;;;;;;;;;;;;
2024/02/25 11:07:07;;;;;;;;;;;;;;;;;;;;;
2024/02/25 11:11:52;;;;;;;13.00;6.80;;;;;;;12.27;59.54;99338.92;133444;1282;22682;-83
2024/02/25 11:16:14;;;;;;;13.30;6.30;;;;;;;12.24;60.32;99330.77;133264;1282;26633;-84
2024/02/25 11:42:01;;;;;;;5.70;3.60;;;;;;;12.02;59.81;99317.42;133353;1277;22577;-82
2024/02/25 11:45:38;;;;;;;11.00;3.90;;;;;;;12.11;59.96;99310.89;133448;1278;24242;-83
2024/02/25 11:49:23;;;;;;;9.70;4.30;;;;;;;12.20;59.90;99309.14;133370;1278;24258;-83
2024/02/25 11:53:42;;;;;;;6.90;3.50;;;;;;;12.20;58.03;99307.17;133413;1277;23602;-83
2024/02/25 11:57:40;;;;;;;;;;;;;;;;;;;;;
2024/02/25 12:01:42;;;;;;;;;;;;;;;;;;;;;
2024/02/25 12:05:59;;;;;;;8.70;3.40;;;;;;;12.16;59.52;99294.71;133352;1278;23322;-83
2024/02/25 12:09:39;;;;;;;8.60;3.50;;;;;;;12.48;59.07;99289.62;133549;1278;22696;-83
2024/02/25 12:13:11;;;;;;;;;;;;;;;;;;;;;
2024/02/25 12:17:27;;;;;;;;;;;;;;;;;;;;;
2024/02/25 12:21:51;;;;;;;7.50;3.20;;;;;;;12.53;56.19;99276.63;133869;1278;24338;-83
2024/02/25 12:43:31;;;;;;;7.70;3.20;;;;;;;12.67;55.22;99266.14;132224;1278;24648;-83
2024/02/25 12:47:28;;;;;;;;;;;;;;;;;;;;;
2024/02/25 12:51:19;;;;;;;;;;;;;;;;;;;;;
2024/02/25 12:54:56;;;;;;;6.30;2.90;;;;;;;12.33;56.78;99260.34;133782;1277;22601;-83
2024/02/25 13:03:36;;;;;;;;;;;;;;;;;;;;;
2024/02/25 13:08:12;;;;;;;11.90;8.30;;;;;;;12.11;56.67;99251.20;132597;1289;22593;-83
2024/02/25 13:16:41;;;;;;;;;;;;;;;;;;;;;
2024/02/25 13:26:01;;;;;;;6.60;3.80;;;;;;;11.73;56.22;99245.13;131763;1290;22681;-83
2024/02/25 13:38:44;;;;;;;;;;;;;;;;;;;;;
2024/02/25 13:47:08;;;;;;;;;;;;;;;;;;;;;
2024/02/25 13:51:21;;;;;;;;;;;;;;;;;;;;;
2024/02/25 14:00:25;;;;;;;;;;;;;;;;;;;;;
2024/02/25 14:04:17;;;;;;;;;;;;;;;;;;;;;
2024/02/25 14:09:01;;;;;;;;;;;;;;;;;;;;;
2024/02/25 14:16:48;;;;;;;5.60;3.00;;;;;;;11.50;56.10;99228.71;132800;1288;23436;-83
2024/02/25 14:20:52;;;;;;;7.00;3.40;;;;;;;11.43;56.47;99223.48;133182;1277;22534;-82
2024/02/25 14:28:28;;;;;;;6.30;2.90;;;;;;;11.33;56.87;99220.01;133795;1272;22527;-81
2024/02/25 14:31:52;;;;;;;5.90;3.10;;;;;;;11.32;57.31;99223.17;133638;1278;24366;-83
2024/02/25 14:34:57;;;;;;;4.90;3.10;;;;;;;11.31;57.51;99220.94;133516;1277;23883;-83
2024/02/25 14:38:02;;;;;;;8.60;4.40;;;;;;;11.31;57.53;99222.77;133641;1277;22585;-82
2024/02/25 14:41:22;;;;;;;7.10;3.80;;;;;;;11.30;57.54;99223.98;133763;1277;23168;-82
2024/02/25 14:44:47;;;;;;;6.00;3.40;;;;;;;11.25;57.45;99219.02;133744;1277;22577;-83
2024/02/25 14:48:33;;;;;;;4.40;2.70;;;;;;;11.21;57.43;99220.58;133709;1278;22576;-83
2024/02/25 15:01:32;;;;;;;;;;;;;;;;;;;;;
2024/02/25 15:06:03;;;;;;;7.30;3.20;;;;;;;10.99;57.55;99208.08;133652;1278;23253;-84
2024/02/25 15:09:49;;;;;;;6.30;3.20;;;;;;;10.96;57.87;99209.52;132870;1288;22715;-83
2024/02/25 15:18:10;;;;;;;5.80;3.50;;;;;;;10.88;58.26;99218.39;133170;1282;22543;-84
2024/02/25 15:21:26;;;;;;;7.60;4.50;;;;;;;10.83;58.79;99211.39;133286;1282;24263;-83
2024/02/25 15:24:48;;;;;;;;;;;;;;;;;;;;;
2024/02/25 15:28:25;;;;;;;5.40;3.00;;;;;;;10.76;59.22;99207.05;133367;1282;22496;-81
2024/02/25 15:31:54;;;;;;;14.60;6.90;;;;;;;10.72;59.32;99204.61;133376;1282;22593;-81
2024/02/25 15:34:59;;;;;;;10.30;5.70;;;;;;;10.67;59.27;99203.81;133560;1278;22586;-82
2024/02/25 15:38:37;;;;;;;11.80;5.60;;;;;;;10.61;59.62;99204.04;133544;1278;24290;-82
2024/02/25 15:50:25;;;;;;;;;;;;;;;;;;;;;
2024/02/25 15:54:22;;;;;;;;;;;;;;;;;;;;;
2024/02/25 16:03:23;;;;;;;;;;;;;;;;;;;;;
2024/02/25 16:07:47;;;;;;;7.40;2.80;;;;;;;10.08;61.27;99205.92;132791;1292;25326;-82
2024/02/25 16:11:34;;;;;;;;;;;;;;;;;;;;;
2024/02/25 16:25:26;;;;;;;4.70;2.40;;;;;;;9.69;62.18;99206.69;133840;1278;22630;-83
2024/02/25 16:33:31;;;;;;;;;;;;;;;;;;;;;
2024/02/25 16:37:58;;;;;;;6.70;2.70;;;;;;;9.32;63.31;99210.40;132580;1286;22536;-84
2024/02/25 16:41:45;;;;;;;;;;;;;;;;;;;;;
2024/02/25 16:50:11;;;;;;;18.00;8.40;;;;;;;8.94;64.49;99216.03;132911;1262;25612;-85
2024/02/25 16:54:07;;;;;;;;;;;;;;;;;;;;;
2024/02/25 16:58:02;;;;;;;;;;;;;;;;;;;;;
2024/02/25 17:11:06;;;;;;;;;;;;;;;;;;;;;
2024/02/25 17:15:21;;;;;;;;;;;;;;;;;;;;;
2024/02/25 17:24:22;;;;;;;;;;;;;;;;;;;;;
2024/02/25 17:32:54;;;;;;;34.30;16.10;;;;;;;8.42;66.16;99224.65;133546;1262;25501;-86
2024/02/25 17:40:51;;;;;;;;;;;;;;;;;;;;;
2024/02/25 17:48:12;;;;;;;12.20;5.90;;;;;;;7.81;67.34;99227.23;133765;1278;22598;-84
2024/02/25 17:52:00;;;;;;;;;;;;;;;;;;;;;
2024/02/25 17:56:03;;;;;;;36.00;19.40;;;;;;;7.59;67.93;99230.64;133696;1262;22718;-82
2024/02/25 18:08:06;;;;;;;51.90;29.90;;;;;;;7.16;68.84;99230.15;133576;1278;23348;-89
2024/02/25 18:11:51;;;;;;;34.70;17.00;;;;;;;6.95;69.57;99230.25;133779;1278;22531;-87
2024/02/25 18:15:29;;;;;;;;;;;;;;;;;;;;;
2024/02/25 18:23:54;;;;;;;;;;;;;;;;;;;;;
2024/02/25 18:28:13;;;;;;;;;;;;;;;;;;;;;
2024/02/25 19:26:48;;;;;;;23.90;12.30;;;;;;;5.45;73.85;99222.20;132449;1298;557772;-78
2024/02/25 19:29:50;;;;;;;24.20;10.40;;;;;;;5.47;73.96;99214.50;134291;1294;124269;-79
2024/02/25 20:02:44;;;;;;;13.20;7.60;;;;;;;4.74;75.30;99200.98;130473;1296;557632;-78
2024/02/25 20:05:49;;;;;;;19.80;10.00;;;;;;;4.68;75.69;99208.87;130659;1301;165670;-77
2024/02/25 20:08:50;;;;;;;16.50;7.90;;;;;;;4.63;75.46;99208.48;130873;1298;23629;-78
2024/02/25 20:11:50;;;;;;;11.40;6.30;;;;;;;4.59;75.76;99205.55;130902;1288;22997;-79
2024/02/25 20:14:51;;;;;;;12.70;6.30;;;;;;;4.55;76.01;99204.55;130771;1298;22607;-78
2024/02/25 20:17:52;;;;;;;18.20;8.10;;;;;;;4.47;75.89;99204.83;130812;1299;22589;-78
2024/02/25 20:20:52;;;;;;;16.00;7.70;;;;;;;4.37;76.18;99204.54;130857;1295;24757;-78
2024/02/25 20:23:53;;;;;;;13.10;7.20;;;;;;;4.25;76.43;99203.09;130832;1298;22570;-78
2024/02/25 20:26:54;;;;;;;15.30;9.50;;;;;;;4.13;76.55;99199.70;130686;1301;23111;-78
2024/02/25 20:29:56;;;;;;;22.90;10.90;;;;;;;4.00;76.91;99197.80;130393;1294;22569;-78
2024/02/25 20:32:57;;;;;;;18.60;10.40;;;;;;;3.84;77.51;99196.03;130812;1295;22757;-77
2024/02/25 20:35:58;;;;;;;20.50;10.10;;;;;;;3.73;77.50;99200.23;130837;1301;23004;-77
2024/02/25 20:38:59;;;;;;;23.80;11.30;;;;;;;3.57;78.16;99199.39;130761;1298;22581;-77
2024/02/25 20:42:00;;;;;;;22.00;12.10;;;;;;;3.47;78.56;99197.40;130789;1298;22570;-77
2024/02/25 20:45:05;;;;;;;25.10;12.80;;;;;;;3.44;78.82;99189.77;130855;1301;24278;-77
2024/02/25 20:48:06;;;;;;;26.80;12.60;;;;;;;3.46;78.96;99188.58;130789;1297;22698;-77
2024/02/25 20:51:06;;;;;;;22.80;12.60;;;;;;;3.50;79.00;99186.60;134136;1301;23117;-77
2024/02/25 20:54:07;;;;;;;27.00;14.20;;;;;;;3.57;79.22;99184.52;134172;1298;22443;-77
2024/02/25 20:57:20;;;;;;;27.50;12.70;;;;;;;3.65;79.05;99186.27;134185;1302;23032;-78
2024/02/25 21:00:30;;;;;;;22.40;12.70;;;;;;;3.76;79.06;99185.38;134066;1301;22443;-77
2024/02/25 21:03:30;;;;;;;25.90;14.10;;;;;;;3.82;78.67;99177.28;134075;1299;22327;-78
2024/02/25 21:06:32;;;;;;;24.90;13.80;;;;;;;3.78;78.70;99181.64;134174;1301;22968;-77
2024/02/25 21:09:32;;;;;;;26.50;13.20;;;;;;;3.75;78.73;99183.37;134079;1296;23143;-77
2024/02/25 21:12:33;;;;;;;25.60;13.30;;;;;;;3.70;78.97;99177.34;134181;1288;22386;-77
2024/02/25 21:15:34;;;;;;;25.60;12.70;;;;;;;3.66;78.69;99176.95;134179;1304;22392;-77
2024/02/25 21:18:35;;;;;;;24.70;12.10;;;;;;;3.58;78.72;99177.62;132294;1301;22814;-77
2024/02/25 21:21:36;;;;;;;23.90;12.10;;;;;;;3.45;78.76;99175.73;130809;1299;25291;-77
2024/02/25 21:24:38;;;;;;;25.50;13.00;;;;;;;3.34;78.79;99170.76;130836;1299;22565;-77
2024/02/25 21:27:40;;;;;;;26.00;12.40;;;;;;;3.24;79.12;99163.89;130850;1302;22687;-77
2024/02/25 21:30:42;;;;;;;23.30;11.90;;;;;;;3.15;79.17;99164.20;130751;1302;26609;-77
2024/02/25 21:33:43;;;;;;;21.70;12.30;;;;;;;3.11;79.02;99157.50;130782;1298;23059;-77
2024/02/25 21:36:43;;;;;;;24.20;12.80;;;;;;;3.13;79.19;99157.33;133613;1299;24569;-77
2024/02/25 21:39:44;;;;;;;25.00;13.80;;;;;;;3.17;79.09;99155.60;134081;1304;22444;-77
2024/02/25 21:49:04;;;;;;;24.10;13.30;;;;;;;3.11;78.90;99157.36;129522;1304;545138;-79
2024/02/25 21:52:05;;;;;;;23.80;13.80;;;;;;;2.99;79.01;99156.98;129515;1307;25466;-79
2024/02/25 21:55:06;;;;;;;;;;;;;;;2.93;79.16;99151.88;129336;1307;24304;-78
2024/02/25 21:58:10;;;;;;;33.00;15.00;;;;;;;2.94;79.59;99151.29;129297;1306;24244;-79
2024/02/25 22:01:10;;;;;;;30.10;14.90;;;;;;;2.91;79.29;99146.96;129302;1304;161819;-78
2024/02/25 22:04:14;;;;;;;21.70;12.10;;;;;;;2.86;79.06;99144.63;129597;1297;22804;-79
2024/02/25 22:07:14;;;;;;;23.00;12.50;;;;;;;2.82;78.95;99144.83;129607;1298;25357;-79
2024/02/25 22:10:15;;;;;;;28.80;13.00;;;;;;;2.81;79.37;99145.09;129551;1308;22676;-79
2024/02/25 22:13:16;;;;;;;38.80;16.90;;;;;;;2.81;79.54;99147.36;129533;1304;22748;-77
2024/02/25 22:16:16;;;;;;;51.30;21.60;;;;;;;2.75;79.56;99148.80;129578;1304;25520;-78
2024/02/25 22:19:18;;;;;;;33.00;16.10;;;;;;;2.64;79.56;99148.38;129489;1305;22585;-78
2024/02/25 22:22:18;;;;;;;25.70;13.30;;;;;;;2.52;79.81;99146.02;129539;1304;25198;-77
2024/02/25 22:25:22;;;;;;;29.30;14.30;;;;;;;2.35;80.07;99149.32;129594;1304;22629;-77
2024/02/25 22:28:22;;;;;;;25.50;11.70;;;;;;;2.31;80.40;99144.79;129694;1305;22575;-78
2024/02/25 22:31:23;;;;;;;21.10;11.30;;;;;;;2.26;80.23;99148.86;129679;1304;25315;-77
2024/02/25 22:34:23;;;;;;;23.30;11.10;;;;;;;2.20;80.33;99149.61;129701;1304;25329;-77
2024/02/25 22:37:24;;;;;;;21.80;11.00;;;;;;;2.15;80.14;99146.58;129693;1304;22572;-77
2024/02/25 22:40:25;;;;;;;20.50;11.10;;;;;;;2.14;80.22;99147.54;133529;1304;22285;-77
2024/02/25 22:43:25;;;;;;;26.00;11.50;;;;;;;2.07;80.45;99142.77;133512;1303;22443;-77
2024/02/25 22:46:26;;;;;;;24.60;13.50;;;;;;;1.98;80.77;99139.33;133495;1304;22945;-77
2024/02/25 22:49:27;;;;;;;31.00;15.50;;;;;;;1.88;81.02;99140.45;133527;1307;22334;-78
2024/02/25 22:52:27;;;;;;;27.90;13.70;;;;;;;1.86;81.50;99136.77;133523;1310;22458;-77
2024/02/25 22:55:31;;;;;;;;;;;;;;;1.89;81.68;99134.75;133495;1303;22517;-77
2024/02/25 22:58:31;;;;;;;25.80;12.50;;;;;;;1.92;81.53;99133.59;133511;1307;22505;-77
2024/02/25 23:01:35;;;;;;;28.10;13.00;;;;;;;1.93;81.17;99134.17;133497;1304;22181;-77
2024/02/25 23:04:35;;;;;;;28.80;12.50;;;;;;;1.91;81.11;99132.34;133510;1289;22485;-77
2024/02/25 23:07:36;;;;;;;25.90;13.30;;;;;;;1.91;81.47;99138.26;133501;1307;22396;-77
2024/02/25 23:10:37;;;;;;;28.40;14.00;;;;;;;1.91;81.60;99135.94;133505;1304;22395;-77
2024/02/25 23:13:37;;;;;;;;;;;;;;;1.79;81.74;99134.05;133570;1304;22461;-77
2024/02/25 23:16:44;;;;;;;26.10;14.40;;;;;;;1.74;82.08;99134.99;133529;1310;22415;-77
2024/02/25 23:19:45;;;;;;;28.30;14.60;;;;;;;1.73;82.13;99135.96;133492;1310;22487;-77
2024/02/25 23:22:46;;;;;;;27.10;13.40;;;;;;;1.70;82.16;99131.48;133534;1304;23340;-77
2024/02/25 23:25:46;;;;;;;27.40;14.30;;;;;;;1.61;82.30;99134.20;133526;1310;22757;-77
2024/02/25 23:28:47;;;;;;;26.00;13.70;;;;;;;1.57;82.52;99131.09;133412;1304;22358;-77
2024/02/25 23:31:47;;;;;;;27.20;13.20;;;;;;;1.58;82.58;99128.55;133526;1307;22469;-77
2024/02/25 23:34:48;;;;;;;32.80;14.30;;;;;;;1.60;82.51;99130.98;133532;1304;22514;-77
2024/02/25 23:37:49;;;;;;;25.10;12.70;;;;;;;1.62;82.38;99135.71;133527;1309;22405;-78
2024/02/25 23:40:49;;;;;;;35.40;15.50;;;;;;;1.55;82.03;99132.84;133683;1309;22492;-77
2024/02/25 23:43:50;;;;;;;30.00;15.00;;;;;;;1.49;82.12;99131.60;133691;1291;22549;-77
2024/02/25 23:46:51;;;;;;;30.90;16.60;;;;;;;1.49;82.16;99127.23;133659;1303;22412;-78
2024/02/25 23:49:51;;;;;;;;;;;;;;;1.49;82.08;99126.40;133438;1301;23321;-77
2024/02/25 23:52:52;;;;;;;31.60;16.70;;;;;;;1.48;82.18;99129.23;133679;1294;22465;-77
2024/02/25 23:55:52;;;;;;;31.60;16.30;;;;;;;1.50;82.28;99127.52;133672;1304;22423;-77
2024/02/25 23:58:53;;;;;;;66.30;19.50;;;;;;;1.47;82.28;99130.73;133651;1309;22583;-77
